Vliegveldwaarnemingen Nederland - (AUTO) METAR

Luchtvaartmeteorologische informatie voor operationeel gebruik en vluchtvoorbereiding is beschikbaar op www.luchtvaartmeteo.nl.

ZCZC
SA231825 EHFS     VLISSINGEN AWS   NLD   8 m.
METAR EHFS 231825Z AUTO 08005KT 8000 OVC015/// 05/02 Q1027=

ZCZC
SA231855 EHKD     DE KOOY/DE KOOY   NLD   1 m.
METAR EHKD 231855Z AUTO 16006KT 9999 OVC015 05/04 Q1027
WHT 16005KT 9999 SCT010 BKN012 TEMPO 3500 BR SCT003 BKN005=

ZCZC
SA231855 EHFD     F3-FB-1   NLD   50 m.
METAR EHFD 231855Z AUTO ///18KT 9999 FEW001/// SCT003/// BKN005///
///// Q1025=

ZCZC
SA231855 EHAM     AMSTERDAM/SCHIPHOL   NLD   -3 m.
METAR EHAM 231855Z 10003KT 080V150 9999 BKN016 05/01 Q1028 TEMPO
SCT016=

ZCZC
SA231855 EHVL     VLIELAND   NLD   10 m.
METAR EHVL 231855Z AUTO 18010KT 8000 BR SCT006 OVC007 06/05 Q1027 YLO=

ZCZC
SA231855 EHJR     K13-A   NLD   37 m.
METAR EHJR 231855Z AUTO 27007KT //// // ///////// 07/06 Q1027 RE//
W08/H7=

ZCZC
SA231855 EHLE     LELYSTAD/LELYSTAD   NLD   -3 m.
METAR EHLE 231855Z AUTO 10005KT 2800 BR OVC013 03/02 Q1028 NOSIG=

ZCZC
SA231855 EHLW     LEEUWARDEN/LEEUWARDEN   NLD   1 m.
METAR EHLW 231855Z AUTO 18006KT 9999 OVC007 05/04 Q1027 GRN=

ZCZC
SA231855 EHDL     ARNHEM/DEELEN   NLD   48 m.
METAR EHDL 231855Z AUTO 04003KT 010V110 3400 BR OVC011 02/02 Q1028 YLO=

ZCZC
SA231855 EHGG     GRONINGEN/EELDE   NLD   5 m.
METAR COR EHGG 231855Z AUTO 18006KT 0900 R23/1300D FG VV001 03/03
Q1028 TEMPO 1500 BR OVC001=

ZCZC
SA231855 EHSC     LICHTEILAND GOEREE   NLD   22 m.
METAR EHSC 231855Z AUTO 12007KT 9999 ///////// 06/03 Q1027 W08/H4=

ZCZC
SA231855 EHSA     EURO PLATFORM   NLD   19 m.
METAR EHSA 231855Z AUTO 10004KT 9999 ///////// 07/04 Q1027 W06/H5=

ZCZC
SA231855 EHWO     WOENSDRECHT/WOENSDRECHT   NLD   19 m.
METAR EHWO 231855Z AUTO 09005KT 030V110 9000 BR OVC010 04/01 Q1027 GRN=

ZCZC
SA231855 EHRD     ROTTERDAM/THE HAGUE AIRPORT   NLD   -5 m.
METAR EHRD 231855Z AUTO 06003KT 7000 OVC016 02/01 Q1028 BECMG 4000 BR=

ZCZC
SA231855 EHGR     GILZE-RIJEN/GILZE-RIJEN   NLD   14 m.
METAR EHGR 231855Z AUTO 07005KT 010V110 9000 BR BKN008 OVC009 04/02
Q1027
GRN 10004KT 9999 OVC015 BECMG 7000 BR OVC008=

ZCZC
SA231855 EHEH     EINDHOVEN/EINDHOVEN   NLD   22 m.
METAR COR EHEH 231855Z AUTO 11005KT 110V170 4200 BR OVC005 03/02
Q1028
YLO 11004KT 4000 BR BKN005 OVC006=

ZCZC
SA231855 EHVK     VOLKEL/VOLKEL   NLD   21 m.
METAR EHVK 231855Z AUTO 10004KT 080V140 6000 BR OVC008 03/02 Q1028 GRN=

ZCZC
SA231855 EHBK     MAASTRICHT/MAASTRICHT-AACHEN   NLD   114 m.
METAR EHBK 231855Z AUTO 10006KT 070V130 4500 BR OVC003 02/01 Q1027
NOSIG=

ZCZC
SA231855 EHFZ     F16-A   NLD   43 m.
METAR EHFZ 231855Z AUTO 24011KT 9999 FEW001 BKN004 BKN006 07/07
Q1026=

ZCZC
SA231855 EHKV     K14-FA-1C   NLD   41 m.
METAR EHKV 231855Z AUTO ///09KT 9999 SCT003 BKN004 OVC006 06/06
Q1028=

ZCZC
SA231855 EHMG     L9-FF-1   NLD   44 m.
METAR EHMG 231855Z AUTO 25009KT 9999 BKN004 OVC005 07/06 Q1028=

ZCZC
SA231855 EHMA     AWG-1   NLD   40 m.
METAR EHMA 231855Z AUTO 21005KT 9999 BKN004 OVC005 06/05 Q1027=

ZCZC
SA231855 EHDV     D15-FA-1   NLD   42 m.
METAR EHDV 231855Z AUTO 27012KT 210V300 9999 FEW001/// SCT003///
BKN004/// 07/06 Q1026=

ZCZC
SA231855 EHAK     A12-CPP   NLD   48 m.
METAR EHAK 231855Z AUTO 24016KT 6000 BKN002/// OVC003/// 07/07 Q1024=

ZCZC
SA231855 EHQE     HOORN-A   NLD   50 m.
METAR EHQE 231855Z AUTO 16007KT 9999 BKN007 OVC008 07/05 Q1027=

ZCZC
SA231855 EHJA     J6-A   NLD   45 m.
METAR EHJA 231855Z AUTO 26013KT 2700 BR BKN000/// OVC001/// 06/06
Q1026=

ZCZC
SA231855 EHPG     P11-B   NLD   41 m.
METAR EHPG 231855Z AUTO ///04KT 7000 BKN016 OVC019 07/06 Q1027=

ZCZC
SA231855 EHHW     BUITENGAATS/BG-OHVS2      42 m.
METAR EHHW 231855Z AUTO 24008KT 210V270 9999 FEW000/// SCT003///
BKN007/// 07/06 Q1027=

23/01/2020 20.00 uur LT